Time,TemperatureF,DewpointF,PressureIn,WindDirection,WindDirectionDegrees,WindSpeedMPH,WindSpeedGustMPH,Humidity,HourlyPrecipIn,Conditions,Clouds,dailyrainin,SoftwareType,DateUTC
2013-05-14 00:09:00,48.2,34.1,29.95,North,360,9.0,15.0,58,0.00,,,0.00,Wunderground v.1.15,2013-05-14 04:09:00,
2013-05-14 00:19:00,48.1,34.4,29.95,North,5,8.0,8.0,59,0.00,,,0.00,Wunderground v.1.15,2013-05-14 04:19:00,
2013-05-14 00:29:00,47.8,35.0,29.95,North,5,9.0,16.0,61,0.00,,,0.00,Wunderground v.1.15,2013-05-14 04:29:00,
2013-05-14 00:39:00,47.5,36.3,29.96,North,5,9.0,9.0,65,0.00,,,0.00,Wunderground v.1.15,2013-05-14 04:39:00,
2013-05-14 00:49:00,47.3,34.9,29.95,North,5,9.0,9.0,62,0.00,,,0.00,Wunderground v.1.15,2013-05-14 04:49:00,
2013-05-14 00:59:00,47.3,35.3,29.95,North,5,12.0,21.0,63,0.00,,,0.00,Wunderground v.1.15,2013-05-14 04:59:00,
2013-05-14 01:09:00,47.3,35.3,29.95,North,5,14.0,14.0,63,0.00,,,0.00,Wunderground v.1.15,2013-05-14 05:09:00,
2013-05-14 01:19:00,47.1,34.3,29.95,North,5,14.0,25.0,61,0.00,,,0.00,Wunderground v.1.15,2013-05-14 05:19:00,
2013-05-14 01:29:00,46.9,35.4,29.95,North,5,13.0,24.0,64,0.00,,,0.00,Wunderground v.1.15,2013-05-14 05:29:00,
2013-05-14 01:39:00,46.8,36.0,29.95,North,5,13.0,13.0,66,0.00,,,0.00,Wunderground v.1.15,2013-05-14 05:39:00,
2013-05-14 01:49:00,46.7,35.9,29.95,North,5,13.0,20.0,66,0.00,,,0.00,Wunderground v.1.15,2013-05-14 05:49:00,
2013-05-14 01:59:00,46.5,35.7,29.95,North,5,14.0,14.0,66,0.00,,,0.00,Wunderground v.1.15,2013-05-14 05:59:00,
2013-05-14 02:09:00,46.5,36.5,29.95,North,5,14.0,22.0,68,0.00,,,0.00,Wunderground v.1.15,2013-05-14 06:09:00,
2013-05-14 02:19:00,46.7,34.8,29.95,North,5,14.0,14.0,63,0.00,,,0.00,Wunderground v.1.15,2013-05-14 06:19:00,
2013-05-14 02:29:00,46.6,35.5,29.95,North,5,16.0,16.0,65,0.00,,,0.00,Wunderground v.1.15,2013-05-14 06:29:00,
2013-05-14 02:39:00,46.5,34.6,29.95,North,5,15.0,15.0,63,0.00,,,0.00,Wunderground v.1.15,2013-05-14 06:39:00,
2013-05-14 02:49:00,46.4,36.4,29.95,North,5,14.0,21.0,68,0.00,,,0.00,Wunderground v.1.15,2013-05-14 06:49:00,
2013-05-14 02:59:00,46.2,35.5,29.95,North,5,13.0,13.0,66,0.00,,,0.00,Wunderground v.1.15,2013-05-14 06:59:00,
2013-05-14 03:09:00,46.0,35.3,29.95,North,5,14.0,20.0,66,0.00,,,0.00,Wunderground v.1.15,2013-05-14 07:09:00,
2013-05-14 03:19:00,45.8,35.1,29.95,North,5,14.0,24.0,66,0.00,,,0.00,Wunderground v.1.15,2013-05-14 07:19:00,
2013-05-14 03:28:00,45.6,34.9,29.95,North,5,14.0,22.0,66,0.00,,,0.00,Wunderground v.1.15,2013-05-14 07:28:00,
2013-05-14 03:38:00,45.6,35.3,29.95,North,5,14.0,14.0,67,0.00,,,0.00,Wunderground v.1.15,2013-05-14 07:38:00,
2013-05-14 03:48:00,45.5,34.8,29.95,North,5,14.0,25.0,66,0.00,,,0.00,Wunderground v.1.15,2013-05-14 07:48:00,
2013-05-14 04:00:00,45.4,35.1,29.95,North,5,15.0,15.0,67,0.00,,,0.00,Wunderground v.1.15,2013-05-14 08:00:00,
2013-05-14 04:09:00,45.5,34.8,29.94,North,5,14.0,23.0,66,0.00,,,0.00,Wunderground v.1.15,2013-05-14 08:09:00,
2013-05-14 04:19:00,45.4,35.5,29.95,North,5,14.0,14.0,68,0.00,,,0.00,Wunderground v.1.15,2013-05-14 08:19:00,
2013-05-14 04:29:00,45.1,35.2,29.95,North,5,13.0,13.0,68,0.00,,,0.00,Wunderground v.1.15,2013-05-14 08:29:00,
2013-05-14 04:39:00,45.0,35.4,29.95,North,5,13.0,22.0,69,0.00,,,0.00,Wunderground v.1.15,2013-05-14 08:39:00,
2013-05-14 04:49:00,45.1,35.9,29.95,North,5,13.0,23.0,70,0.00,,,0.00,Wunderground v.1.15,2013-05-14 08:49:00,
2013-05-14 04:59:00,45.0,36.2,29.95,North,5,12.0,24.0,71,0.00,,,0.00,Wunderground v.1.15,2013-05-14 08:59:00,
2013-05-14 05:09:00,44.9,35.3,29.95,North,5,14.0,14.0,69,0.00,,,0.00,Wunderground v.1.15,2013-05-14 09:09:00,
2013-05-14 05:19:00,44.9,35.3,29.95,North,5,14.0,14.0,69,0.00,,,0.00,Wunderground v.1.15,2013-05-14 09:19:00,
2013-05-14 05:29:00,44.9,35.3,29.95,North,5,14.0,14.0,69,0.00,,,0.00,Wunderground v.1.15,2013-05-14 09:29:00,
2013-05-14 05:39:00,44.7,35.9,29.96,North,5,13.0,13.0,71,0.00,,,0.00,Wunderground v.1.15,2013-05-14 09:39:00,
2013-05-14 05:49:00,44.3,35.5,29.96,North,5,11.0,22.0,71,0.00,,,0.00,Wunderground v.1.15,2013-05-14 09:49:00,
2013-05-14 05:59:00,44.2,35.7,29.96,North,5,10.0,19.0,72,0.00,,,0.00,Wunderground v.1.15,2013-05-14 09:59:00,
2013-05-14 06:09:00,44.0,35.9,29.97,North,5,10.0,10.0,73,0.00,,,0.00,Wunderground v.1.15,2013-05-14 10:09:00,
2013-05-14 06:19:00,44.0,35.9,29.97,North,5,8.0,19.0,73,0.00,,,0.00,Wunderground v.1.15,2013-05-14 10:19:00,
2013-05-14 06:29:00,43.8,35.7,29.97,North,5,8.0,8.0,73,0.00,,,0.00,Wunderground v.1.15,2013-05-14 10:29:00,
2013-05-14 06:39:00,43.8,35.7,29.97,North,5,6.0,6.0,73,0.00,,,0.00,Wunderground v.1.15,2013-05-14 10:39:00,
2013-05-14 06:49:00,44.0,35.9,29.98,North,5,5.0,14.0,73,0.00,,,0.00,Wunderground v.1.15,2013-05-14 10:49:00,
2013-05-14 06:59:00,44.2,36.4,29.98,North,360,6.0,6.0,74,0.00,,,0.00,Wunderground v.1.15,2013-05-14 10:59:00,
2013-05-14 07:09:00,44.4,36.3,29.98,North,360,7.0,7.0,73,0.00,,,0.00,Wunderground v.1.15,2013-05-14 11:09:00,
2013-05-14 07:19:00,44.6,36.5,29.98,North,5,7.0,7.0,73,0.00,,,0.00,Wunderground v.1.15,2013-05-14 11:19:00,
2013-05-14 07:29:00,44.7,35.5,29.98,North,5,7.0,7.0,70,0.00,,,0.00,Wunderground v.1.15,2013-05-14 11:29:00,
2013-05-14 07:39:00,45.0,35.8,29.98,North,5,7.0,7.0,70,0.00,,,0.00,Wunderground v.1.15,2013-05-14 11:39:00,
2013-05-14 07:49:00,45.4,35.8,29.99,North,360,6.0,14.0,69,0.00,,,0.00,Wunderground v.1.15,2013-05-14 11:49:00,
2013-05-14 07:58:00,45.8,35.8,29.99,North,5,6.0,6.0,68,0.00,,,0.00,Wunderground v.1.15,2013-05-14 11:58:00,
2013-05-14 08:08:00,46.2,36.6,29.99,North,5,6.0,14.0,69,0.00,,,0.00,Wunderground v.1.15,2013-05-14 12:08:00,
2013-05-14 08:18:00,46.3,35.9,29.99,North,5,7.0,7.0,67,0.00,,,0.00,Wunderground v.1.15,2013-05-14 12:18:00,
2013-05-14 08:28:00,46.4,36.0,29.99,North,5,7.0,14.0,67,0.00,,,0.00,Wunderground v.1.15,2013-05-14 12:28:00,
2013-05-14 08:38:00,46.8,36.0,29.99,North,5,8.0,14.0,66,0.00,,,0.00,Wunderground v.1.15,2013-05-14 12:38:00,
2013-05-14 08:48:00,47.0,36.2,29.99,North,5,6.0,6.0,66,0.00,,,0.00,Wunderground v.1.15,2013-05-14 12:48:00,
2013-05-14 08:59:00,47.2,36.4,29.99,North,5,6.0,6.0,66,0.00,,,0.00,Wunderground v.1.15,2013-05-14 12:59:00,
2013-05-14 09:09:00,47.7,36.5,29.99,North,5,5.0,5.0,65,0.00,,,0.00,Wunderground v.1.15,2013-05-14 13:09:00,
2013-05-14 09:19:00,48.0,36.8,29.98,North,5,5.0,5.0,65,0.00,,,0.00,Wunderground v.1.15,2013-05-14 13:19:00,
2013-05-14 09:29:00,47.9,35.9,29.98,North,5,6.0,13.0,63,0.00,,,0.00,Wunderground v.1.15,2013-05-14 13:29:00,
2013-05-14 09:39:00,47.8,35.4,29.98,North,5,6.0,6.0,62,0.00,,,0.00,Wunderground v.1.15,2013-05-14 13:39:00,
2013-05-14 09:49:00,47.8,35.8,29.98,North,5,5.0,14.0,63,0.00,,,0.00,Wunderground v.1.15,2013-05-14 13:49:00,
2013-05-14 09:59:00,48.1,35.7,29.98,North,5,5.0,5.0,62,0.00,,,0.00,Wunderground v.1.15,2013-05-14 13:59:00,
2013-05-14 10:09:00,48.2,35.8,29.98,North,5,7.0,7.0,62,0.00,,,0.00,Wunderground v.1.15,2013-05-14 14:09:00,
2013-05-14 10:19:00,48.7,35.8,29.98,North,5,6.0,14.0,61,0.00,,,0.00,Wunderground v.1.15,2013-05-14 14:19:00,
2013-05-14 10:29:00,49.0,36.1,29.98,North,5,5.0,5.0,61,0.00,,,0.00,Wunderground v.1.15,2013-05-14 14:29:00,
2013-05-14 10:39:00,49.4,36.5,29.98,North,5,4.0,11.0,61,0.00,,,0.00,Wunderground v.1.15,2013-05-14 14:39:00,
2013-05-14 10:49:00,49.7,36.8,29.98,North,5,5.0,5.0,61,0.00,,,0.00,Wunderground v.1.15,2013-05-14 14:49:00,
2013-05-14 10:59:00,50.3,37.4,29.98,North,5,4.0,13.0,61,0.00,,,0.00,Wunderground v.1.15,2013-05-14 14:59:00,
2013-05-14 11:09:00,50.7,36.5,29.99,North,5,4.0,4.0,58,0.00,,,0.00,Wunderground v.1.15,2013-05-14 15:09:00,
2013-05-14 11:19:00,51.2,36.0,29.98,North,5,4.0,11.0,56,0.00,,,0.00,Wunderground v.1.15,2013-05-14 15:19:00,
2013-05-14 11:29:00,51.7,37.4,29.98,North,5,3.0,11.0,58,0.00,,,0.00,Wunderground v.1.15,2013-05-14 15:29:00,
2013-05-14 11:39:00,52.3,38.0,29.99,North,5,4.0,4.0,58,0.00,,,0.00,Wunderground v.1.15,2013-05-14 15:39:00,
2013-05-14 11:49:00,52.5,36.8,29.98,North,5,4.0,10.0,55,0.00,,,0.00,Wunderground v.1.15,2013-05-14 15:49:00,
2013-05-14 11:59:00,52.9,36.2,29.98,North,5,5.0,10.0,53,0.00,,,0.00,Wunderground v.1.15,2013-05-14 15:59:00,
2013-05-14 12:09:00,53.0,37.3,29.98,North,5,6.0,6.0,55,0.00,,,0.00,Wunderground v.1.15,2013-05-14 16:09:00,
2013-05-14 12:19:00,53.5,37.7,29.98,North,5,6.0,6.0,55,0.00,,,0.00,Wunderground v.1.15,2013-05-14 16:19:00,
2013-05-14 12:29:00,54.0,36.3,29.98,North,5,5.0,5.0,51,0.00,,,0.00,Wunderground v.1.15,2013-05-14 16:29:00,
2013-05-14 12:39:00,54.5,36.7,29.98,North,5,5.0,12.0,51,0.00,,,0.00,Wunderground v.1.15,2013-05-14 16:39:00,
2013-05-14 12:49:00,55.0,36.2,29.98,North,5,5.0,13.0,49,0.00,,,0.00,Wunderground v.1.15,2013-05-14 16:49:00,
2013-05-14 12:59:00,55.7,37.3,29.98,North,5,5.0,10.0,50,0.00,,,0.00,Wunderground v.1.15,2013-05-14 16:59:00,
2013-05-14 13:09:00,56.6,35.5,29.97,North,5,4.0,11.0,45,0.00,,,0.00,Wunderground v.1.15,2013-05-14 17:09:00,
2013-05-14 13:18:00,56.3,35.8,29.97,North,5,4.0,4.0,46,0.00,,,0.00,Wunderground v.1.15,2013-05-14 17:18:00,
2013-05-14 13:28:00,56.0,35.5,29.97,North,5,5.0,5.0,46,0.00,,,0.00,Wunderground v.1.15,2013-05-14 17:28:00,
2013-05-14 13:38:00,56.7,33.8,29.98,North,5,4.0,11.0,42,0.00,,,0.00,Wunderground v.1.15,2013-05-14 17:38:00,
2013-05-14 13:48:00,56.8,33.3,29.98,North,5,4.0,11.0,41,0.00,,,0.00,Wunderground v.1.15,2013-05-14 17:48:00,
2013-05-14 13:59:00,57.1,33.0,29.98,North,5,4.0,10.0,40,0.00,,,0.00,Wunderground v.1.15,2013-05-14 17:59:00,
2013-05-14 14:09:00,57.6,34.1,29.97,North,5,5.0,5.0,41,0.00,,,0.00,Wunderground v.1.15,2013-05-14 18:09:00,
2013-05-14 14:19:00,58.0,31.2,29.97,North,5,5.0,5.0,36,0.00,,,0.00,Wunderground v.1.15,2013-05-14 18:19:00,
2013-05-14 14:29:00,58.3,35.3,29.97,North,5,5.0,5.0,42,0.00,,,0.00,Wunderground v.1.15,2013-05-14 18:29:00,
2013-05-14 14:39:00,58.8,33.2,29.96,North,5,5.0,12.0,38,0.00,,,0.00,Wunderground v.1.15,2013-05-14 18:39:00,
2013-05-14 14:49:00,59.1,34.1,29.96,North,5,5.0,5.0,39,0.00,,,0.00,Wunderground v.1.15,2013-05-14 18:49:00,
2013-05-14 14:59:00,59.4,34.4,29.96,North,5,5.0,11.0,39,0.00,,,0.00,Wunderground v.1.15,2013-05-14 18:59:00,
2013-05-14 15:09:00,58.7,33.1,29.95,North,5,5.0,11.0,38,0.00,,,0.00,Wunderground v.1.15,2013-05-14 19:09:00,
2013-05-14 15:19:00,58.6,33.7,29.95,North,5,5.0,13.0,39,0.00,,,0.00,Wunderground v.1.15,2013-05-14 19:19:00,
2013-05-14 15:29:00,58.2,34.6,29.95,North,5,3.0,10.0,41,0.00,,,0.00,Wunderground v.1.15,2013-05-14 19:29:00,
2013-05-14 15:39:00,57.6,35.8,29.95,North,5,4.0,4.0,44,0.00,,,0.00,Wunderground v.1.15,2013-05-14 19:39:00,
2013-05-14 15:49:00,57.1,34.8,29.95,North,5,4.0,4.0,43,0.00,,,0.00,Wunderground v.1.15,2013-05-14 19:49:00,
2013-05-14 15:59:00,56.8,33.9,29.95,North,5,4.0,4.0,42,0.00,,,0.00,Wunderground v.1.15,2013-05-14 19:59:00,
2013-05-14 16:09:00,56.9,34.0,29.94,North,5,4.0,4.0,42,0.00,,,0.00,Wunderground v.1.15,2013-05-14 20:09:00,
2013-05-14 16:19:00,57.0,35.9,29.94,North,5,4.0,4.0,45,0.00,,,0.00,Wunderground v.1.15,2013-05-14 20:19:00,
2013-05-14 16:29:00,57.8,33.0,29.94,North,5,4.0,4.0,39,0.00,,,0.00,Wunderground v.1.15,2013-05-14 20:29:00,
2013-05-14 16:39:00,58.9,35.8,29.93,North,5,4.0,13.0,42,0.00,,,0.00,Wunderground v.1.15,2013-05-14 20:39:00,
2013-05-14 16:49:00,60.0,35.0,29.93,North,5,5.0,5.0,39,0.00,,,0.00,Wunderground v.1.15,2013-05-14 20:49:00,
2013-05-14 16:59:00,59.8,34.1,29.93,North,5,5.0,5.0,38,0.00,,,0.00,Wunderground v.1.15,2013-05-14 20:59:00,
2013-05-14 17:09:00,59.4,31.7,29.93,North,5,4.0,4.0,35,0.00,,,0.00,Wunderground v.1.15,2013-05-14 21:09:00,
2013-05-14 17:19:00,59.2,31.5,29.93,North,5,3.0,3.0,35,0.00,,,0.00,Wunderground v.1.15,2013-05-14 21:19:00,
2013-05-14 17:29:00,58.4,31.5,29.93,North,5,3.0,11.0,36,0.00,,,0.00,Wunderground v.1.15,2013-05-14 21:29:00,
2013-05-14 17:39:00,58.1,31.9,29.93,North,5,3.0,11.0,37,0.00,,,0.00,Wunderground v.1.15,2013-05-14 21:39:00,
2013-05-14 17:48:00,57.5,32.1,29.93,North,5,3.0,3.0,38,0.00,,,0.00,Wunderground v.1.15,2013-05-14 21:48:00,
2013-05-14 17:58:00,57.5,33.3,29.93,North,5,2.0,6.0,40,0.00,,,0.00,Wunderground v.1.15,2013-05-14 21:58:00,
2013-05-14 18:08:00,56.9,32.8,29.93,North,5,3.0,9.0,40,0.00,,,0.00,Wunderground v.1.15,2013-05-14 22:08:00,
2013-05-14 18:18:00,56.3,34.1,29.93,North,5,3.0,3.0,43,0.00,,,0.00,Wunderground v.1.15,2013-05-14 22:18:00,
2013-05-14 18:28:00,56.1,35.0,29.93,North,5,2.0,7.0,45,0.00,,,0.00,Wunderground v.1.15,2013-05-14 22:28:00,
2013-05-14 18:38:00,55.9,35.9,29.92,North,5,3.0,3.0,47,0.00,,,0.00,Wunderground v.1.15,2013-05-14 22:38:00,
2013-05-14 18:48:00,55.9,34.8,29.93,North,5,2.0,2.0,45,0.00,,,0.00,Wunderground v.1.15,2013-05-14 22:48:00,
2013-05-14 19:00:00,55.8,34.2,29.93,North,5,2.0,2.0,44,0.00,,,0.00,Wunderground v.1.15,2013-05-14 23:00:00,
2013-05-14 19:09:00,56.0,33.8,29.93,North,5,2.0,7.0,43,0.00,,,0.00,Wunderground v.1.15,2013-05-14 23:09:00,
2013-05-14 19:19:00,55.9,34.3,29.93,North,5,2.0,2.0,44,0.00,,,0.00,Wunderground v.1.15,2013-05-14 23:19:00,
2013-05-14 19:30:00,55.4,33.8,29.93,North,5,2.0,8.0,44,0.00,,,0.00,Wunderground v.1.15,2013-05-14 23:30:00,
2013-05-14 19:39:00,54.8,37.0,29.93,North,5,3.0,9.0,51,0.00,,,0.00,Wunderground v.1.15,2013-05-14 23:39:00,
2013-05-14 19:49:00,53.3,38.4,29.93,North,5,7.0,7.0,57,0.00,,,0.00,Wunderground v.1.15,2013-05-14 23:49:00,
2013-05-14 19:59:00,52.2,38.7,29.93,North,5,7.0,7.0,60,0.00,,,0.00,Wunderground v.1.15,2013-05-14 23:59:00,
2013-05-14 20:09:00,51.3,39.1,29.93,North,5,7.0,7.0,63,0.00,,,0.00,Wunderground v.1.15,2013-05-15 00:09:00,
2013-05-14 20:19:00,50.6,39.3,29.93,North,5,8.0,8.0,65,0.00,,,0.00,Wunderground v.1.15,2013-05-15 00:19:00,
2013-05-14 20:29:00,50.0,39.5,29.93,North,5,7.0,7.0,67,0.00,,,0.00,Wunderground v.1.15,2013-05-15 00:29:00,
2013-05-14 20:39:00,49.6,39.5,29.94,North,5,9.0,16.0,68,0.00,,,0.00,Wunderground v.1.15,2013-05-15 00:39:00,
2013-05-14 20:49:00,49.3,39.6,29.95,North,5,8.0,8.0,69,0.00,,,0.00,Wunderground v.1.15,2013-05-15 00:49:00,
2013-05-14 20:59:00,49.0,39.6,29.95,North,5,8.0,8.0,70,0.00,,,0.00,Wunderground v.1.15,2013-05-15 00:59:00,
2013-05-14 21:09:00,48.8,39.8,29.95,North,5,7.0,16.0,71,0.00,,,0.00,Wunderground v.1.15,2013-05-15 01:09:00,
2013-05-14 21:19:00,48.5,39.9,29.95,North,5,7.0,13.0,72,0.00,,,0.00,Wunderground v.1.15,2013-05-15 01:19:00,
2013-05-14 21:29:00,48.3,40.0,29.95,North,5,7.0,7.0,73,0.00,,,0.00,Wunderground v.1.15,2013-05-15 01:29:00,
2013-05-14 21:39:00,47.9,40.0,29.96,North,5,6.0,12.0,74,0.00,,,0.00,Wunderground v.1.15,2013-05-15 01:39:00,
2013-05-14 21:49:00,47.5,40.3,29.96,North,5,6.0,12.0,76,0.00,,,0.00,Wunderground v.1.15,2013-05-15 01:49:00,
2013-05-14 21:59:00,47.1,40.3,29.96,North,5,5.0,10.0,77,0.00,,,0.00,Wunderground v.1.15,2013-05-15 01:59:00,
2013-05-14 22:09:00,46.7,40.2,29.96,North,5,5.0,10.0,78,0.00,,,0.00,Wunderground v.1.15,2013-05-15 02:09:00,
2013-05-14 22:19:00,46.5,40.3,29.96,North,5,5.0,9.0,79,0.00,,,0.00,Wunderground v.1.15,2013-05-15 02:19:00,
2013-05-14 22:29:00,46.0,40.2,29.96,North,5,5.0,10.0,80,0.00,,,0.00,Wunderground v.1.15,2013-05-15 02:29:00,
2013-05-14 22:39:00,45.6,40.1,29.96,North,5,5.0,10.0,81,0.00,,,0.00,Wunderground v.1.15,2013-05-15 02:39:00,
2013-05-14 22:48:00,45.4,40.2,29.97,North,5,5.0,11.0,82,0.00,,,0.00,Wunderground v.1.15,2013-05-15 02:48:00,
2013-05-14 22:59:00,45.1,40.2,29.97,North,5,5.0,5.0,83,0.00,,,0.00,Wunderground v.1.15,2013-05-15 02:59:00,
2013-05-14 23:08:00,44.9,40.4,29.97,North,5,5.0,5.0,84,0.00,,,0.00,Wunderground v.1.15,2013-05-15 03:08:00,
2013-05-14 23:19:00,44.7,40.5,29.97,North,5,5.0,9.0,85,0.00,,,0.00,Wunderground v.1.15,2013-05-15 03:19:00,
2013-05-14 23:29:00,44.5,40.6,29.97,North,5,5.0,5.0,86,0.00,,,0.00,Wunderground v.1.15,2013-05-15 03:29:00,
2013-05-14 23:39:00,44.5,40.6,29.97,North,5,5.0,5.0,86,0.00,,,0.00,Wunderground v.1.15,2013-05-15 03:39:00,
2013-05-14 23:49:00,44.5,40.6,29.97,North,5,5.0,9.0,86,0.00,,,0.00,Wunderground v.1.15,2013-05-15 03:49:00,